sensor_id;sensor_type;location;lat;lon;timestamp;temperature;humidity
38500;DHT22;24269;51.894;4.622;2022-12-11T00:02:17;3.00;99.90
38500;DHT22;24269;51.894;4.622;2022-12-11T00:04:43;3.00;99.90
38500;DHT22;24269;51.894;4.622;2022-12-11T00:07:09;3.00;99.90
38500;DHT22;24269;51.894;4.622;2022-12-11T00:09:34;3.10;99.90
38500;DHT22;24269;51.894;4.622;2022-12-11T00:12:00;3.10;99.90
38500;DHT22;24269;51.894;4.622;2022-12-11T00:14:27;3.10;99.90
38500;DHT22;24269;51.894;4.622;2022-12-11T00:16:53;3.10;99.90
38500;DHT22;24269;51.894;4.622;2022-12-11T00:19:19;3.10;99.90
38500;DHT22;24269;51.894;4.622;2022-12-11T00:21:44;3.10;99.90
38500;DHT22;24269;51.894;4.622;2022-12-11T00:24:10;3.10;99.90
38500;DHT22;24269;51.894;4.622;2022-12-11T00:26:35;3.10;99.90
38500;DHT22;24269;51.894;4.622;2022-12-11T00:29:01;3.10;99.90
38500;DHT22;24269;51.894;4.622;2022-12-11T00:31:27;3.10;99.90
38500;DHT22;24269;51.894;4.622;2022-12-11T00:33:52;3.10;99.90
38500;DHT22;24269;51.894;4.622;2022-12-11T00:36:23;3.00;99.90
38500;DHT22;24269;51.894;4.622;2022-12-11T00:38:49;3.00;99.90
38500;DHT22;24269;51.894;4.622;2022-12-11T00:41:16;3.10;99.90
38500;DHT22;24269;51.894;4.622;2022-12-11T00:43:41;3.10;99.90
38500;DHT22;24269;51.894;4.622;2022-12-11T00:46:07;3.00;99.90
38500;DHT22;24269;51.894;4.622;2022-12-11T00:48:33;3.00;99.90
38500;DHT22;24269;51.894;4.622;2022-12-11T00:50:58;3.00;99.90
38500;DHT22;24269;51.894;4.622;2022-12-11T00:53:24;3.00;99.90
38500;DHT22;24269;51.894;4.622;2022-12-11T00:55:50;3.00;99.90
38500;DHT22;24269;51.894;4.622;2022-12-11T00:58:16;3.00;99.90
38500;DHT22;24269;51.894;4.622;2022-12-11T01:00:42;3.00;99.90
38500;DHT22;24269;51.894;4.622;2022-12-11T01:03:09;3.00;99.90
38500;DHT22;24269;51.894;4.622;2022-12-11T01:05:35;3.00;99.90
38500;DHT22;24269;51.894;4.622;2022-12-11T01:08:01;3.00;99.90
38500;DHT22;24269;51.894;4.622;2022-12-11T01:10:27;3.00;99.90
38500;DHT22;24269;51.894;4.622;2022-12-11T01:12:55;3.00;99.90
38500;DHT22;24269;51.894;4.622;2022-12-11T01:15:24;3.00;99.90
38500;DHT22;24269;51.894;4.622;2022-12-11T01:17:49;3.00;99.90
38500;DHT22;24269;51.894;4.622;2022-12-11T01:20:17;2.90;99.90
38500;DHT22;24269;51.894;4.622;2022-12-11T01:22:43;2.90;99.90
38500;DHT22;24269;51.894;4.622;2022-12-11T01:25:09;2.90;99.90
38500;DHT22;24269;51.894;4.622;2022-12-11T01:27:36;2.90;99.90
38500;DHT22;24269;51.894;4.622;2022-12-11T01:30:03;2.90;99.90
38500;DHT22;24269;51.894;4.622;2022-12-11T01:32:29;2.90;99.90
38500;DHT22;24269;51.894;4.622;2022-12-11T01:34:55;2.90;99.90
38500;DHT22;24269;51.894;4.622;2022-12-11T01:37:21;2.90;99.90
38500;DHT22;24269;51.894;4.622;2022-12-11T01:39:46;2.90;99.90
38500;DHT22;24269;51.894;4.622;2022-12-11T01:42:17;2.90;99.90
38500;DHT22;24269;51.894;4.622;2022-12-11T01:47:08;2.90;99.90
38500;DHT22;24269;51.894;4.622;2022-12-11T01:49:34;2.80;99.90
38500;DHT22;24269;51.894;4.622;2022-12-11T01:52:18;2.90;99.90
38500;DHT22;24269;51.894;4.622;2022-12-11T01:54:55;2.90;99.90
38500;DHT22;24269;51.894;4.622;2022-12-11T01:57:21;2.90;99.90
38500;DHT22;24269;51.894;4.622;2022-12-11T01:59:47;2.90;99.90
38500;DHT22;24269;51.894;4.622;2022-12-11T02:02:25;2.80;99.90
38500;DHT22;24269;51.894;4.622;2022-12-11T02:04:52;2.80;99.90
38500;DHT22;24269;51.894;4.622;2022-12-11T02:07:17;2.80;99.90
38500;DHT22;24269;51.894;4.622;2022-12-11T02:09:44;2.80;99.90
38500;DHT22;24269;51.894;4.622;2022-12-11T02:12:55;2.80;99.90
38500;DHT22;24269;51.894;4.622;2022-12-11T02:19:07;2.90;99.90
38500;DHT22;24269;51.894;4.622;2022-12-11T02:21:42;2.90;99.90
38500;DHT22;24269;51.894;4.622;2022-12-11T02:27:13;2.90;99.90
38500;DHT22;24269;51.894;4.622;2022-12-11T02:29:56;2.90;99.90
38500;DHT22;24269;51.894;4.622;2022-12-11T02:32:29;2.90;99.90
38500;DHT22;24269;51.894;4.622;2022-12-11T02:35:08;2.90;99.90
38500;DHT22;24269;51.894;4.622;2022-12-11T02:37:38;2.90;99.90
38500;DHT22;24269;51.894;4.622;2022-12-11T02:40:08;2.80;99.90
38500;DHT22;24269;51.894;4.622;2022-12-11T02:42:37;2.80;99.90
38500;DHT22;24269;51.894;4.622;2022-12-11T02:45:03;2.80;99.90
38500;DHT22;24269;51.894;4.622;2022-12-11T02:47:31;2.80;99.90
38500;DHT22;24269;51.894;4.622;2022-12-11T02:49:59;2.80;99.90
38500;DHT22;24269;51.894;4.622;2022-12-11T02:52:26;2.90;99.90
38500;DHT22;24269;51.894;4.622;2022-12-11T02:54:56;2.90;99.90
38500;DHT22;24269;51.894;4.622;2022-12-11T02:59:52;2.80;99.90
38500;DHT22;24269;51.894;4.622;2022-12-11T03:02:18;2.80;99.90
38500;DHT22;24269;51.894;4.622;2022-12-11T03:04:44;2.80;99.90
38500;DHT22;24269;51.894;4.622;2022-12-11T03:07:22;2.80;99.90
38500;DHT22;24269;51.894;4.622;2022-12-11T03:09:50;2.80;99.90
38500;DHT22;24269;51.894;4.622;2022-12-11T03:12:19;2.80;99.90
38500;DHT22;24269;51.894;4.622;2022-12-11T03:14:46;2.80;99.90
38500;DHT22;24269;51.894;4.622;2022-12-11T03:17:22;2.80;99.90
38500;DHT22;24269;51.894;4.622;2022-12-11T03:20:09;2.80;99.90
38500;DHT22;24269;51.894;4.622;2022-12-11T03:22:41;2.80;99.90
38500;DHT22;24269;51.894;4.622;2022-12-11T03:28:15;2.80;99.90
38500;DHT22;24269;51.894;4.622;2022-12-11T03:30:44;2.80;99.90
38500;DHT22;24269;51.894;4.622;2022-12-11T03:33:14;2.80;99.90
38500;DHT22;24269;51.894;4.622;2022-12-11T03:35:44;2.80;99.90
38500;DHT22;24269;51.894;4.622;2022-12-11T03:38:24;2.80;99.90
38500;DHT22;24269;51.894;4.622;2022-12-11T03:40:54;2.80;99.90
38500;DHT22;24269;51.894;4.622;2022-12-11T03:43:22;2.80;99.90
38500;DHT22;24269;51.894;4.622;2022-12-11T03:45:49;2.80;99.90
38500;DHT22;24269;51.894;4.622;2022-12-11T03:48:16;2.80;99.90
38500;DHT22;24269;51.894;4.622;2022-12-11T03:50:44;2.80;99.90
38500;DHT22;24269;51.894;4.622;2022-12-11T03:53:11;2.80;99.90
38500;DHT22;24269;51.894;4.622;2022-12-11T03:55:38;2.80;99.90
38500;DHT22;24269;51.894;4.622;2022-12-11T03:58:04;2.80;99.90
38500;DHT22;24269;51.894;4.622;2022-12-11T04:00:30;2.80;99.90
38500;DHT22;24269;51.894;4.622;2022-12-11T04:02:56;2.80;99.90
38500;DHT22;24269;51.894;4.622;2022-12-11T04:05:44;2.80;99.90
38500;DHT22;24269;51.894;4.622;2022-12-11T04:08:11;2.80;99.90
38500;DHT22;24269;51.894;4.622;2022-12-11T04:10:37;2.70;99.90
38500;DHT22;24269;51.894;4.622;2022-12-11T04:13:03;2.70;99.90
38500;DHT22;24269;51.894;4.622;2022-12-11T04:15:28;2.70;99.90
38500;DHT22;24269;51.894;4.622;2022-12-11T04:17:54;2.70;99.90
38500;DHT22;24269;51.894;4.622;2022-12-11T04:20:38;2.80;99.90
38500;DHT22;24269;51.894;4.622;2022-12-11T04:23:22;2.80;99.90
38500;DHT22;24269;51.894;4.622;2022-12-11T04:26:08;2.80;99.90
38500;DHT22;24269;51.894;4.622;2022-12-11T04:28:35;2.80;99.90
38500;DHT22;24269;51.894;4.622;2022-12-11T04:31:01;2.80;99.90
38500;DHT22;24269;51.894;4.622;2022-12-11T04:33:27;2.70;99.90
38500;DHT22;24269;51.894;4.622;2022-12-11T04:35:53;2.80;99.90
38500;DHT22;24269;51.894;4.622;2022-12-11T04:38:18;2.80;99.90
38500;DHT22;24269;51.894;4.622;2022-12-11T04:40:44;2.80;99.90
38500;DHT22;24269;51.894;4.622;2022-12-11T04:43:10;2.70;99.90
38500;DHT22;24269;51.894;4.622;2022-12-11T04:45:35;2.80;99.90
38500;DHT22;24269;51.894;4.622;2022-12-11T04:48:01;2.80;99.90
38500;DHT22;24269;51.894;4.622;2022-12-11T04:50:26;2.70;99.90
38500;DHT22;24269;51.894;4.622;2022-12-11T04:52:56;2.70;99.90
38500;DHT22;24269;51.894;4.622;2022-12-11T04:55:22;2.70;99.90
38500;DHT22;24269;51.894;4.622;2022-12-11T04:57:48;2.70;99.90
38500;DHT22;24269;51.894;4.622;2022-12-11T05:00:14;2.70;99.90
38500;DHT22;24269;51.894;4.622;2022-12-11T05:02:41;2.70;99.90
38500;DHT22;24269;51.894;4.622;2022-12-11T05:05:09;2.70;99.90
38500;DHT22;24269;51.894;4.622;2022-12-11T05:07:35;2.70;99.90
38500;DHT22;24269;51.894;4.622;2022-12-11T05:10:00;2.70;99.90
38500;DHT22;24269;51.894;4.622;2022-12-11T05:12:26;2.70;99.90
38500;DHT22;24269;51.894;4.622;2022-12-11T05:14:53;2.70;99.90
38500;DHT22;24269;51.894;4.622;2022-12-11T05:17:19;2.70;99.90
38500;DHT22;24269;51.894;4.622;2022-12-11T05:19:49;2.70;99.90
38500;DHT22;24269;51.894;4.622;2022-12-11T05:22:16;2.70;99.90
38500;DHT22;24269;51.894;4.622;2022-12-11T05:24:42;2.70;99.90
38500;DHT22;24269;51.894;4.622;2022-12-11T05:27:08;2.70;99.90
38500;DHT22;24269;51.894;4.622;2022-12-11T05:29:34;2.70;99.90
38500;DHT22;24269;51.894;4.622;2022-12-11T05:32:00;2.70;99.90
38500;DHT22;24269;51.894;4.622;2022-12-11T05:34:26;2.70;99.90
38500;DHT22;24269;51.894;4.622;2022-12-11T05:36:51;2.70;99.90
38500;DHT22;24269;51.894;4.622;2022-12-11T05:39:17;2.70;99.90
38500;DHT22;24269;51.894;4.622;2022-12-11T05:41:43;2.80;99.90
38500;DHT22;24269;51.894;4.622;2022-12-11T05:44:11;2.80;99.90
38500;DHT22;24269;51.894;4.622;2022-12-11T05:46:37;2.80;99.90
38500;DHT22;24269;51.894;4.622;2022-12-11T05:49:03;2.80;99.90
38500;DHT22;24269;51.894;4.622;2022-12-11T05:51:29;2.80;99.90
38500;DHT22;24269;51.894;4.622;2022-12-11T05:53:56;2.80;99.90
38500;DHT22;24269;51.894;4.622;2022-12-11T05:56:25;2.90;99.90
38500;DHT22;24269;51.894;4.622;2022-12-11T05:58:52;2.80;99.90
38500;DHT22;24269;51.894;4.622;2022-12-11T06:01:38;2.80;99.90
38500;DHT22;24269;51.894;4.622;2022-12-11T06:04:06;2.80;99.90
38500;DHT22;24269;51.894;4.622;2022-12-11T06:06:33;2.80;99.90
38500;DHT22;24269;51.894;4.622;2022-12-11T06:08:59;2.80;99.90
38500;DHT22;24269;51.894;4.622;2022-12-11T06:11:27;2.80;99.90
38500;DHT22;24269;51.894;4.622;2022-12-11T06:13:53;2.80;99.90
38500;DHT22;24269;51.894;4.622;2022-12-11T06:16:20;2.80;99.90
38500;DHT22;24269;51.894;4.622;2022-12-11T06:18:45;2.80;99.90
38500;DHT22;24269;51.894;4.622;2022-12-11T06:23:41;2.80;99.90
38500;DHT22;24269;51.894;4.622;2022-12-11T06:26:08;2.80;99.90
38500;DHT22;24269;51.894;4.622;2022-12-11T06:28:34;2.80;99.90
38500;DHT22;24269;51.894;4.622;2022-12-11T06:31:00;2.80;99.90
38500;DHT22;24269;51.894;4.622;2022-12-11T06:33:26;2.80;99.90
38500;DHT22;24269;51.894;4.622;2022-12-11T06:35:52;2.80;99.90
38500;DHT22;24269;51.894;4.622;2022-12-11T06:38:17;2.80;99.90
38500;DHT22;24269;51.894;4.622;2022-12-11T06:40:43;2.80;99.90
38500;DHT22;24269;51.894;4.622;2022-12-11T06:43:09;2.80;99.90
38500;DHT22;24269;51.894;4.622;2022-12-11T06:45:38;2.80;99.90
38500;DHT22;24269;51.894;4.622;2022-12-11T06:48:03;2.80;99.90
38500;DHT22;24269;51.894;4.622;2022-12-11T06:50:29;2.80;99.90
38500;DHT22;24269;51.894;4.622;2022-12-11T06:52:55;2.80;99.90
38500;DHT22;24269;51.894;4.622;2022-12-11T06:55:21;2.80;99.90
38500;DHT22;24269;51.894;4.622;2022-12-11T06:57:47;2.70;99.90
38500;DHT22;24269;51.894;4.622;2022-12-11T07:00:13;2.70;99.90
38500;DHT22;24269;51.894;4.622;2022-12-11T07:02:39;2.70;99.90
38500;DHT22;24269;51.894;4.622;2022-12-11T07:05:05;2.70;99.90
38500;DHT22;24269;51.894;4.622;2022-12-11T07:07:31;2.80;99.90
38500;DHT22;24269;51.894;4.622;2022-12-11T07:09:56;2.80;99.90
38500;DHT22;24269;51.894;4.622;2022-12-11T07:12:22;2.70;99.90
38500;DHT22;24269;51.894;4.622;2022-12-11T07:14:47;2.70;99.90
38500;DHT22;24269;51.894;4.622;2022-12-11T07:17:13;2.70;99.90
38500;DHT22;24269;51.894;4.622;2022-12-11T07:19:39;2.60;99.90
38500;DHT22;24269;51.894;4.622;2022-12-11T07:22:05;2.60;99.90
38500;DHT22;24269;51.894;4.622;2022-12-11T07:24:30;2.60;99.90
38500;DHT22;24269;51.894;4.622;2022-12-11T07:26:56;2.60;99.90
38500;DHT22;24269;51.894;4.622;2022-12-11T07:29:22;2.60;99.90
38500;DHT22;24269;51.894;4.622;2022-12-11T07:31:48;2.60;99.90
38500;DHT22;24269;51.894;4.622;2022-12-11T07:34:14;2.60;99.90
38500;DHT22;24269;51.894;4.622;2022-12-11T07:36:39;2.70;99.90
38500;DHT22;24269;51.894;4.622;2022-12-11T07:39:05;2.70;99.90
38500;DHT22;24269;51.894;4.622;2022-12-11T07:41:32;2.70;99.90
38500;DHT22;24269;51.894;4.622;2022-12-11T07:43:58;2.80;99.90
38500;DHT22;24269;51.894;4.622;2022-12-11T07:46:27;2.70;99.90
38500;DHT22;24269;51.894;4.622;2022-12-11T07:48:53;2.80;99.90
38500;DHT22;24269;51.894;4.622;2022-12-11T07:51:24;2.80;99.90
38500;DHT22;24269;51.894;4.622;2022-12-11T07:53:56;2.70;99.90
38500;DHT22;24269;51.894;4.622;2022-12-11T07:56:23;2.70;99.90
38500;DHT22;24269;51.894;4.622;2022-12-11T07:58:49;2.70;99.90
38500;DHT22;24269;51.894;4.622;2022-12-11T08:01:20;2.70;99.90
38500;DHT22;24269;51.894;4.622;2022-12-11T08:03:46;2.70;99.90
38500;DHT22;24269;51.894;4.622;2022-12-11T08:06:11;2.70;99.90
38500;DHT22;24269;51.894;4.622;2022-12-11T08:08:38;2.70;99.90
38500;DHT22;24269;51.894;4.622;2022-12-11T08:11:05;2.80;99.90
38500;DHT22;24269;51.894;4.622;2022-12-11T08:13:31;2.80;99.90
38500;DHT22;24269;51.894;4.622;2022-12-11T08:15:57;2.70;99.90
38500;DHT22;24269;51.894;4.622;2022-12-11T08:18:23;2.80;99.90
38500;DHT22;24269;51.894;4.622;2022-12-11T08:20:49;2.80;99.90
38500;DHT22;24269;51.894;4.622;2022-12-11T08:23:15;2.80;99.90
38500;DHT22;24269;51.894;4.622;2022-12-11T08:25:41;2.80;99.90
38500;DHT22;24269;51.894;4.622;2022-12-11T08:28:07;2.80;99.90
38500;DHT22;24269;51.894;4.622;2022-12-11T08:30:33;2.80;99.90
38500;DHT22;24269;51.894;4.622;2022-12-11T08:32:59;2.80;99.90
38500;DHT22;24269;51.894;4.622;2022-12-11T08:35:25;2.70;99.90
38500;DHT22;24269;51.894;4.622;2022-12-11T08:38:22;2.80;99.90
38500;DHT22;24269;51.894;4.622;2022-12-11T08:40:48;2.80;99.90
38500;DHT22;24269;51.894;4.622;2022-12-11T08:43:13;2.80;99.90
38500;DHT22;24269;51.894;4.622;2022-12-11T08:45:40;2.80;99.90
38500;DHT22;24269;51.894;4.622;2022-12-11T08:48:06;2.90;99.90
38500;DHT22;24269;51.894;4.622;2022-12-11T08:50:31;2.90;99.90
38500;DHT22;24269;51.894;4.622;2022-12-11T08:52:57;2.80;99.90
38500;DHT22;24269;51.894;4.622;2022-12-11T08:55:23;2.80;99.90
38500;DHT22;24269;51.894;4.622;2022-12-11T08:57:48;2.90;99.90
38500;DHT22;24269;51.894;4.622;2022-12-11T09:00:15;2.90;99.90
38500;DHT22;24269;51.894;4.622;2022-12-11T09:02:41;2.90;99.90
38500;DHT22;24269;51.894;4.622;2022-12-11T09:05:07;2.90;99.90
38500;DHT22;24269;51.894;4.622;2022-12-11T09:07:34;3.00;99.90
38500;DHT22;24269;51.894;4.622;2022-12-11T09:10:02;3.00;99.90
38500;DHT22;24269;51.894;4.622;2022-12-11T09:12:27;3.00;99.90
38500;DHT22;24269;51.894;4.622;2022-12-11T09:14:53;3.00;99.90
38500;DHT22;24269;51.894;4.622;2022-12-11T09:17:19;3.10;99.90
38500;DHT22;24269;51.894;4.622;2022-12-11T09:19:45;3.10;99.90
38500;DHT22;24269;51.894;4.622;2022-12-11T09:22:12;3.10;99.90
38500;DHT22;24269;51.894;4.622;2022-12-11T09:24:38;3.10;99.90
38500;DHT22;24269;51.894;4.622;2022-12-11T09:27:05;3.20;99.90
38500;DHT22;24269;51.894;4.622;2022-12-11T09:29:31;3.10;99.90
38500;DHT22;24269;51.894;4.622;2022-12-11T09:31:57;3.20;99.90
38500;DHT22;24269;51.894;4.622;2022-12-11T09:34:23;3.20;99.90
38500;DHT22;24269;51.894;4.622;2022-12-11T09:36:49;3.20;99.90
38500;DHT22;24269;51.894;4.622;2022-12-11T09:39:16;3.20;99.90
38500;DHT22;24269;51.894;4.622;2022-12-11T09:47:30;3.20;99.90
38500;DHT22;24269;51.894;4.622;2022-12-11T09:50:14;3.20;99.90
38500;DHT22;24269;51.894;4.622;2022-12-11T09:55:20;3.20;99.90
38500;DHT22;24269;51.894;4.622;2022-12-11T10:06:01;3.30;99.90
38500;DHT22;24269;51.894;4.622;2022-12-11T10:14:48;3.20;99.90
38500;DHT22;24269;51.894;4.622;2022-12-11T10:17:12;3.20;99.90
38500;DHT22;24269;51.894;4.622;2022-12-11T10:19:41;3.20;99.90
38500;DHT22;24269;51.894;4.622;2022-12-11T10:22:17;3.30;99.90
38500;DHT22;24269;51.894;4.622;2022-12-11T10:24:58;3.30;99.90
38500;DHT22;24269;51.894;4.622;2022-12-11T10:27:30;3.30;99.90
38500;DHT22;24269;51.894;4.622;2022-12-11T10:30:06;3.30;99.90
38500;DHT22;24269;51.894;4.622;2022-12-11T10:35:10;3.40;99.90
38500;DHT22;24269;51.894;4.622;2022-12-11T10:37:41;3.30;99.90
38500;DHT22;24269;51.894;4.622;2022-12-11T10:40:08;3.30;99.90
38500;DHT22;24269;51.894;4.622;2022-12-11T10:42:34;3.30;99.90
38500;DHT22;24269;51.894;4.622;2022-12-11T10:45:04;3.30;99.90
38500;DHT22;24269;51.894;4.622;2022-12-11T10:47:30;3.30;99.90
38500;DHT22;24269;51.894;4.622;2022-12-11T10:50:00;3.30;99.90
38500;DHT22;24269;51.894;4.622;2022-12-11T10:52:35;3.20;99.90
38500;DHT22;24269;51.894;4.622;2022-12-11T10:55:18;3.20;99.90
38500;DHT22;24269;51.894;4.622;2022-12-11T10:57:45;3.20;99.90
38500;DHT22;24269;51.894;4.622;2022-12-11T11:03:39;3.30;99.90
38500;DHT22;24269;51.894;4.622;2022-12-11T11:06:16;3.30;99.90
38500;DHT22;24269;51.894;4.622;2022-12-11T11:08:48;3.30;99.90
38500;DHT22;24269;51.894;4.622;2022-12-11T11:13:45;3.40;99.90
38500;DHT22;24269;51.894;4.622;2022-12-11T11:16:13;3.40;99.90
38500;DHT22;24269;51.894;4.622;2022-12-11T11:18:40;3.40;99.90
38500;DHT22;24269;51.894;4.622;2022-12-11T11:21:15;3.40;99.90
38500;DHT22;24269;51.894;4.622;2022-12-11T11:23:42;3.40;99.90
38500;DHT22;24269;51.894;4.622;2022-12-11T11:26:09;3.40;99.90
38500;DHT22;24269;51.894;4.622;2022-12-11T11:28:40;3.40;99.90
38500;DHT22;24269;51.894;4.622;2022-12-11T11:31:07;3.40;99.90
38500;DHT22;24269;51.894;4.622;2022-12-11T11:33:55;3.40;99.90
38500;DHT22;24269;51.894;4.622;2022-12-11T11:36:26;3.40;99.90
38500;DHT22;24269;51.894;4.622;2022-12-11T11:44:21;3.40;99.90
38500;DHT22;24269;51.894;4.622;2022-12-11T11:47:16;3.30;99.90
38500;DHT22;24269;51.894;4.622;2022-12-11T11:50:21;3.30;99.90
38500;DHT22;24269;51.894;4.622;2022-12-11T11:53:20;3.30;99.90
38500;DHT22;24269;51.894;4.622;2022-12-11T11:58:46;3.30;99.90
38500;DHT22;24269;51.894;4.622;2022-12-11T12:01:18;3.30;99.90
38500;DHT22;24269;51.894;4.622;2022-12-11T12:03:45;3.30;99.90
38500;DHT22;24269;51.894;4.622;2022-12-11T12:25:15;3.20;99.90
38500;DHT22;24269;51.894;4.622;2022-12-11T12:30:39;3.20;99.90
38500;DHT22;24269;51.894;4.622;2022-12-11T12:36:05;3.10;99.90
38500;DHT22;24269;51.894;4.622;2022-12-11T12:38:53;3.10;99.90
38500;DHT22;24269;51.894;4.622;2022-12-11T12:41:35;3.10;99.90
38500;DHT22;24269;51.894;4.622;2022-12-11T12:44:16;3.10;99.90
38500;DHT22;24269;51.894;4.622;2022-12-11T12:49:28;3.20;99.90
38500;DHT22;24269;51.894;4.622;2022-12-11T12:51:55;3.10;99.90
38500;DHT22;24269;51.894;4.622;2022-12-11T12:54:23;3.10;99.90
38500;DHT22;24269;51.894;4.622;2022-12-11T12:56:51;3.10;99.90
38500;DHT22;24269;51.894;4.622;2022-12-11T12:59:27;3.10;99.90
38500;DHT22;24269;51.894;4.622;2022-12-11T13:01:56;3.10;99.90
38500;DHT22;24269;51.894;4.622;2022-12-11T13:04:43;3.10;99.90
38500;DHT22;24269;51.894;4.622;2022-12-11T13:07:20;3.20;99.90
38500;DHT22;24269;51.894;4.622;2022-12-11T13:10:06;3.10;99.90
38500;DHT22;24269;51.894;4.622;2022-12-11T13:12:44;3.10;99.90
38500;DHT22;24269;51.894;4.622;2022-12-11T13:15:40;3.20;99.90
38500;DHT22;24269;51.894;4.622;2022-12-11T13:18:32;3.10;99.90
38500;DHT22;24269;51.894;4.622;2022-12-11T13:21:00;3.20;99.90
38500;DHT22;24269;51.894;4.622;2022-12-11T13:23:33;3.10;99.90
38500;DHT22;24269;51.894;4.622;2022-12-11T13:26:01;3.10;99.90
38500;DHT22;24269;51.894;4.622;2022-12-11T13:28:31;3.10;99.90
38500;DHT22;24269;51.894;4.622;2022-12-11T13:31:27;3.10;99.90
38500;DHT22;24269;51.894;4.622;2022-12-11T13:33:56;3.20;99.90
38500;DHT22;24269;51.894;4.622;2022-12-11T13:36:34;3.20;99.90
38500;DHT22;24269;51.894;4.622;2022-12-11T13:39:13;3.20;99.90
38500;DHT22;24269;51.894;4.622;2022-12-11T13:41:47;3.20;99.90
38500;DHT22;24269;51.894;4.622;2022-12-11T13:44:20;3.20;99.90
38500;DHT22;24269;51.894;4.622;2022-12-11T13:46:48;3.20;99.90
38500;DHT22;24269;51.894;4.622;2022-12-11T13:49:22;3.20;99.90
38500;DHT22;24269;51.894;4.622;2022-12-11T13:52:01;3.10;99.90
38500;DHT22;24269;51.894;4.622;2022-12-11T13:54:29;3.10;99.90
38500;DHT22;24269;51.894;4.622;2022-12-11T13:59:37;3.10;99.90
38500;DHT22;24269;51.894;4.622;2022-12-11T14:04:58;3.10;99.90
38500;DHT22;24269;51.894;4.622;2022-12-11T14:07:27;3.20;99.90
38500;DHT22;24269;51.894;4.622;2022-12-11T14:09:59;3.20;99.90
38500;DHT22;24269;51.894;4.622;2022-12-11T14:12:24;3.10;99.90
38500;DHT22;24269;51.894;4.622;2022-12-11T14:14:53;3.10;99.90
38500;DHT22;24269;51.894;4.622;2022-12-11T14:17:28;3.10;99.90
38500;DHT22;24269;51.894;4.622;2022-12-11T14:19:59;3.10;99.90
38500;DHT22;24269;51.894;4.622;2022-12-11T14:22:27;3.10;99.90
38500;DHT22;24269;51.894;4.622;2022-12-11T14:24:59;3.10;99.90
38500;DHT22;24269;51.894;4.622;2022-12-11T14:27:27;3.10;99.90
38500;DHT22;24269;51.894;4.622;2022-12-11T14:29:53;3.10;99.90
38500;DHT22;24269;51.894;4.622;2022-12-11T14:32:33;3.10;99.90
38500;DHT22;24269;51.894;4.622;2022-12-11T14:35:03;3.10;99.90
38500;DHT22;24269;51.894;4.622;2022-12-11T14:37:30;3.10;99.90
38500;DHT22;24269;51.894;4.622;2022-12-11T14:40:19;3.10;99.90
38500;DHT22;24269;51.894;4.622;2022-12-11T14:42:54;3.10;99.90
38500;DHT22;24269;51.894;4.622;2022-12-11T14:45:32;3.00;99.90
38500;DHT22;24269;51.894;4.622;2022-12-11T14:47:59;2.90;99.90
38500;DHT22;24269;51.894;4.622;2022-12-11T14:53:07;2.90;99.90
38500;DHT22;24269;51.894;4.622;2022-12-11T14:55:35;2.90;99.90
38500;DHT22;24269;51.894;4.622;2022-12-11T14:58:15;2.90;99.90
38500;DHT22;24269;51.894;4.622;2022-12-11T15:00:42;2.90;99.90
38500;DHT22;24269;51.894;4.622;2022-12-11T15:03:36;2.90;99.90
38500;DHT22;24269;51.894;4.622;2022-12-11T15:07:02;2.90;99.90
38500;DHT22;24269;51.894;4.622;2022-12-11T15:11:41;2.80;99.90
38500;DHT22;24269;51.894;4.622;2022-12-11T15:14:10;2.70;99.90
38500;DHT22;24269;51.894;4.622;2022-12-11T15:16:39;2.70;99.90
38500;DHT22;24269;51.894;4.622;2022-12-11T15:19:05;2.70;99.90
38500;DHT22;24269;51.894;4.622;2022-12-11T15:21:34;2.70;99.90
38500;DHT22;24269;51.894;4.622;2022-12-11T15:24:04;2.70;99.90
38500;DHT22;24269;51.894;4.622;2022-12-11T15:26:39;2.70;99.90
38500;DHT22;24269;51.894;4.622;2022-12-11T15:29:37;2.70;99.90
38500;DHT22;24269;51.894;4.622;2022-12-11T15:34:47;2.60;99.90
38500;DHT22;24269;51.894;4.622;2022-12-11T15:39:42;2.60;99.90
38500;DHT22;24269;51.894;4.622;2022-12-11T15:42:10;2.60;99.90
38500;DHT22;24269;51.894;4.622;2022-12-11T15:44:40;2.60;99.90
38500;DHT22;24269;51.894;4.622;2022-12-11T15:47:21;2.50;99.90
38500;DHT22;24269;51.894;4.622;2022-12-11T15:49:47;2.60;99.90
38500;DHT22;24269;51.894;4.622;2022-12-11T15:52:12;2.60;99.90
38500;DHT22;24269;51.894;4.622;2022-12-11T15:54:38;2.60;99.90
38500;DHT22;24269;51.894;4.622;2022-12-11T15:57:05;2.60;99.90
38500;DHT22;24269;51.894;4.622;2022-12-11T15:59:32;2.60;99.90
38500;DHT22;24269;51.894;4.622;2022-12-11T16:01:58;2.60;99.90
38500;DHT22;24269;51.894;4.622;2022-12-11T16:04:23;2.50;99.90
38500;DHT22;24269;51.894;4.622;2022-12-11T16:06:50;2.50;99.90
38500;DHT22;24269;51.894;4.622;2022-12-11T16:09:15;2.50;99.90
38500;DHT22;24269;51.894;4.622;2022-12-11T16:11:41;2.60;99.90
38500;DHT22;24269;51.894;4.622;2022-12-11T16:14:07;2.50;99.90
38500;DHT22;24269;51.894;4.622;2022-12-11T16:16:32;2.50;99.90
38500;DHT22;24269;51.894;4.622;2022-12-11T16:18:58;2.50;99.90
38500;DHT22;24269;51.894;4.622;2022-12-11T16:21:25;2.50;99.90
38500;DHT22;24269;51.894;4.622;2022-12-11T16:23:50;2.40;99.90
38500;DHT22;24269;51.894;4.622;2022-12-11T16:26:16;2.50;99.90
38500;DHT22;24269;51.894;4.622;2022-12-11T16:28:42;2.40;99.90
38500;DHT22;24269;51.894;4.622;2022-12-11T16:31:12;2.40;99.90
38500;DHT22;24269;51.894;4.622;2022-12-11T16:33:38;2.30;99.90
38500;DHT22;24269;51.894;4.622;2022-12-11T16:36:17;2.30;99.90
38500;DHT22;24269;51.894;4.622;2022-12-11T16:38:48;2.30;99.90
38500;DHT22;24269;51.894;4.622;2022-12-11T16:41:14;2.30;99.90
38500;DHT22;24269;51.894;4.622;2022-12-11T16:43:40;2.30;99.90
38500;DHT22;24269;51.894;4.622;2022-12-11T16:46:06;2.30;99.90
38500;DHT22;24269;51.894;4.622;2022-12-11T16:48:32;2.30;99.90
38500;DHT22;24269;51.894;4.622;2022-12-11T16:50:57;2.30;99.90
38500;DHT22;24269;51.894;4.622;2022-12-11T16:53:23;2.30;99.90
38500;DHT22;24269;51.894;4.622;2022-12-11T16:55:49;2.30;99.90
38500;DHT22;24269;51.894;4.622;2022-12-11T16:58:15;2.30;99.90
38500;DHT22;24269;51.894;4.622;2022-12-11T17:00:47;2.20;99.90
38500;DHT22;24269;51.894;4.622;2022-12-11T17:03:14;2.20;99.90
38500;DHT22;24269;51.894;4.622;2022-12-11T17:05:40;2.20;99.90
38500;DHT22;24269;51.894;4.622;2022-12-11T17:08:07;2.30;99.90
38500;DHT22;24269;51.894;4.622;2022-12-11T17:10:33;2.20;99.90
38500;DHT22;24269;51.894;4.622;2022-12-11T17:12:58;2.20;99.90
38500;DHT22;24269;51.894;4.622;2022-12-11T17:15:24;2.20;99.90
38500;DHT22;24269;51.894;4.622;2022-12-11T17:17:50;2.20;99.90
38500;DHT22;24269;51.894;4.622;2022-12-11T17:20:16;2.30;99.90
38500;DHT22;24269;51.894;4.622;2022-12-11T17:22:42;2.30;99.90
38500;DHT22;24269;51.894;4.622;2022-12-11T17:25:08;2.30;99.90
38500;DHT22;24269;51.894;4.622;2022-12-11T17:27:33;2.30;99.90
38500;DHT22;24269;51.894;4.622;2022-12-11T17:29:59;2.30;99.90
38500;DHT22;24269;51.894;4.622;2022-12-11T17:32:25;2.30;99.90
38500;DHT22;24269;51.894;4.622;2022-12-11T17:34:50;2.30;99.90
38500;DHT22;24269;51.894;4.622;2022-12-11T17:37:16;2.30;99.90
38500;DHT22;24269;51.894;4.622;2022-12-11T17:39:42;2.30;99.90